Shawbridge, Canada
Current Conditions -  °F | °C
As of 4:00 PM on Friday 28 Nov 2014 (Local Time) from CYMX Reporting Station
Broken Clouds Broken Clouds  
Wind Chill: 15°   Ceiling: 4000
Heat Index: 23°   Visibility: 30mi
Dew Point: 12°   Wind: 7mph
Humidity: 63%   Direction: 240°WSW
Pressure: 30.12"   Gusts: NA
Location:  45.87°N, 74.08°W
Report Text: CYMX 282100Z 24006KT 210V270 30SM FEW025 BKN040 M05/M11 A3012 RMK SC1SC7 SC TR OCNL -SHSN SLP207
Loading
Personal Weather Stations






























Interactive Weather Map New forecast layout! Learn more

10-Day Weather Forecast

Advertisements
Track Severe Weather on mobile